createdAt,value
2023-04-13T00:00:14.535Z,0.70
2023-04-13T00:02:46.692Z,0.83
2023-04-13T00:05:15.084Z,0.93
2023-04-13T00:07:43.509Z,0.80
2023-04-13T00:10:12.356Z,1.00
2023-04-13T00:12:41.125Z,0.93
2023-04-13T00:15:10.444Z,1.20
2023-04-13T00:17:39.103Z,1.20
2023-04-13T00:20:13.578Z,1.60
2023-04-13T00:22:43.228Z,1.60
2023-04-13T00:25:14.593Z,1.43
2023-04-13T00:27:44.276Z,1.90
2023-04-13T00:30:15.873Z,1.77
2023-04-13T00:32:45.357Z,1.70
2023-04-13T00:35:19.159Z,1.93
2023-04-13T00:37:48.840Z,2.10
2023-04-13T00:40:18.428Z,2.07
2023-04-13T00:42:47.508Z,1.90
2023-04-13T00:45:15.782Z,1.67
2023-04-13T00:47:48.288Z,1.73
2023-04-13T00:50:20.384Z,1.60
2023-04-13T00:52:49.273Z,1.70
2023-04-13T00:55:21.669Z,1.40
2023-04-13T00:57:53.127Z,1.30
2023-04-13T01:00:24.890Z,1.70
2023-04-13T01:02:53.975Z,1.70
2023-04-13T01:05:26.195Z,1.63
2023-04-13T01:08:04.168Z,1.50
2023-04-13T01:10:38.102Z,1.83
2023-04-13T01:13:13.125Z,1.73
2023-04-13T01:15:46.455Z,1.60
2023-04-13T01:18:16.497Z,1.70
2023-04-13T01:20:49.330Z,1.80
2023-04-13T01:23:28.658Z,1.30
2023-04-13T01:26:01.061Z,1.43
2023-04-13T01:28:32.308Z,1.60
2023-04-13T01:31:02.188Z,1.67
2023-04-13T01:33:33.901Z,1.97
2023-04-13T01:36:03.373Z,1.80
2023-04-13T01:38:31.391Z,1.83
2023-04-13T01:40:59.715Z,1.80
2023-04-13T01:43:30.724Z,1.97
2023-04-13T01:46:04.278Z,1.70
2023-04-13T01:48:39.964Z,1.50
2023-04-13T01:51:13.584Z,1.43
2023-04-13T01:53:49.190Z,1.40
2023-04-13T01:56:19.464Z,1.43
2023-04-13T01:58:51.441Z,1.30
2023-04-13T02:01:19.481Z,1.23
2023-04-13T02:03:49.058Z,1.37
2023-04-13T02:06:17.477Z,1.17
2023-04-13T02:08:45.559Z,1.30
2023-04-13T02:11:14.022Z,1.20
2023-04-13T02:13:42.350Z,1.40
2023-04-13T02:16:12.422Z,1.37
2023-04-13T02:18:41.205Z,1.30
2023-04-13T02:21:11.492Z,1.57
2023-04-13T02:23:41.436Z,1.30
2023-04-13T02:26:10.256Z,1.13
2023-04-13T02:28:38.665Z,1.17
2023-04-13T02:31:07.317Z,0.97
2023-04-13T02:33:37.889Z,0.93
2023-04-13T02:36:07.086Z,1.00
2023-04-13T02:38:37.386Z,0.90
2023-04-13T02:41:06.708Z,1.20
2023-04-13T02:43:35.802Z,1.03
2023-04-13T02:46:04.693Z,1.20
2023-04-13T02:48:33.301Z,1.07
2023-04-13T02:51:03.363Z,1.20
2023-04-13T02:53:31.357Z,0.97
2023-04-13T02:55:59.465Z,1.00
2023-04-13T02:58:27.676Z,0.90
2023-04-13T03:00:56.765Z,1.20
2023-04-13T03:03:25.021Z,1.30
2023-04-13T03:05:53.411Z,1.30
2023-04-13T03:08:23.929Z,0.90
2023-04-13T03:10:54.402Z,1.00
2023-04-13T03:13:23.017Z,0.80
2023-04-13T03:15:51.104Z,0.80
2023-04-13T03:18:19.409Z,1.17
2023-04-13T03:20:47.763Z,1.10
2023-04-13T03:23:16.414Z,0.90
2023-04-13T03:25:45.899Z,1.07
2023-04-13T03:28:13.961Z,1.10
2023-04-13T03:30:42.044Z,1.00
2023-04-13T03:33:10.045Z,1.20
2023-04-13T03:35:38.041Z,1.50
2023-04-13T03:38:06.460Z,1.20
2023-04-13T03:40:34.841Z,1.10
2023-04-13T03:43:04.867Z,1.00
2023-04-13T03:45:34.552Z,1.20
2023-04-13T03:48:02.684Z,1.10
2023-04-13T03:50:31.503Z,1.07
2023-04-13T03:52:59.645Z,1.30
2023-04-13T03:55:27.764Z,1.13
2023-04-13T03:57:56.535Z,1.53
2023-04-13T04:00:26.410Z,0.87
2023-04-13T04:02:54.647Z,1.20
2023-04-13T04:05:24.194Z,1.13
2023-04-13T04:07:53.431Z,1.10
2023-04-13T04:10:21.780Z,1.30
2023-04-13T04:12:49.828Z,1.47
2023-04-13T04:15:18.257Z,1.03
2023-04-13T04:17:47.794Z,1.30
2023-04-13T04:20:16.413Z,1.27
2023-04-13T04:22:45.047Z,1.50
2023-04-13T04:25:13.136Z,1.03
2023-04-13T04:27:41.562Z,2.10
2023-04-13T04:30:11.051Z,2.00
2023-04-13T04:32:40.752Z,1.43
2023-04-13T04:35:13.268Z,1.50
2023-04-13T04:37:41.546Z,1.37
2023-04-13T04:40:10.778Z,1.10
2023-04-13T04:42:39.107Z,1.30
2023-04-13T04:45:08.293Z,1.40
2023-04-13T04:47:42.111Z,1.17
2023-04-13T04:50:17.936Z,1.40
2023-04-13T04:52:46.128Z,1.90
2023-04-13T04:55:14.126Z,1.50
2023-04-13T04:57:43.983Z,1.60
2023-04-13T05:00:15.861Z,1.40
2023-04-13T05:02:46.668Z,1.63
2023-04-13T05:05:16.572Z,1.20
2023-04-13T05:07:45.188Z,1.17
2023-04-13T05:10:13.510Z,1.30
2023-04-13T05:12:41.486Z,1.20
2023-04-13T05:15:12.244Z,1.20
2023-04-13T05:17:41.788Z,1.30
2023-04-13T05:20:11.045Z,1.30
2023-04-13T05:22:40.652Z,1.37
2023-04-13T05:25:09.559Z,1.23
2023-04-13T05:27:37.583Z,1.23
2023-04-13T05:30:06.767Z,1.63
2023-04-13T05:32:35.441Z,1.73
2023-04-13T05:35:04.521Z,1.30
2023-04-13T05:37:32.890Z,1.77
2023-04-13T05:40:02.665Z,1.10
2023-04-13T05:42:31.109Z,1.60
2023-04-13T05:44:59.163Z,1.40
2023-04-13T05:47:27.492Z,1.47
2023-04-13T05:49:55.630Z,1.50
2023-04-13T05:52:24.256Z,1.40
2023-04-13T05:54:52.765Z,1.20
2023-04-13T05:57:22.336Z,1.20
2023-04-13T05:59:51.924Z,1.10
2023-04-13T06:02:20.992Z,1.30
2023-04-13T06:04:49.381Z,1.20
2023-04-13T06:07:17.949Z,1.43
2023-04-13T06:09:46.195Z,1.57
2023-04-13T06:12:16.035Z,1.43
2023-04-13T06:14:46.201Z,1.60
2023-04-13T06:17:14.250Z,1.17
2023-04-13T06:19:42.228Z,1.60
2023-04-13T06:22:10.577Z,1.20
2023-04-13T06:24:39.112Z,1.63
2023-04-13T06:27:07.306Z,1.70
2023-04-13T06:29:36.702Z,1.63
2023-04-13T06:32:06.858Z,1.60
2023-04-13T06:34:35.924Z,1.53
2023-04-13T06:37:04.426Z,1.60
2023-04-13T06:39:37.781Z,1.60
2023-04-13T06:42:06.984Z,1.40
2023-04-13T06:44:35.112Z,1.43
2023-04-13T06:47:03.172Z,1.60
2023-04-13T06:49:35.495Z,1.97
2023-04-13T06:52:03.599Z,1.50
2023-04-13T06:54:31.810Z,1.70
2023-04-13T06:57:02.181Z,2.00
2023-04-13T06:59:30.238Z,1.60
2023-04-13T07:01:58.484Z,1.67
2023-04-13T07:04:29.114Z,1.43
2023-04-13T07:07:00.579Z,2.00
2023-04-13T07:09:28.858Z,1.70
2023-04-13T07:11:58.123Z,1.50
2023-04-13T07:14:26.437Z,1.83
2023-04-13T07:16:54.536Z,1.37
2023-04-13T07:19:23.865Z,1.70
2023-04-13T07:21:52.149Z,1.80
2023-04-13T07:24:21.685Z,1.60
2023-04-13T07:26:50.088Z,1.70
2023-04-13T07:29:18.275Z,1.77
2023-04-13T07:31:47.866Z,1.90
2023-04-13T07:34:16.468Z,1.70
2023-04-13T07:36:44.943Z,2.03
2023-04-13T07:39:13.038Z,1.47
2023-04-13T07:41:42.954Z,1.60
2023-04-13T07:44:11.440Z,1.63
2023-04-13T07:46:40.118Z,1.73
2023-04-13T07:49:08.462Z,1.90
2023-04-13T07:51:36.558Z,1.70
2023-04-13T07:54:04.730Z,2.17
2023-04-13T07:56:36.407Z,1.50
2023-04-13T07:59:06.317Z,1.67
2023-04-13T08:01:35.099Z,1.20
2023-04-13T08:04:03.525Z,1.80
2023-04-13T08:06:31.922Z,1.97
2023-04-13T08:09:00.926Z,2.00
2023-04-13T08:11:29.010Z,1.60
2023-04-13T08:13:57.069Z,1.60
2023-04-13T08:16:26.940Z,1.80
2023-04-13T08:18:55.020Z,2.13
2023-04-13T08:21:22.942Z,1.93
2023-04-13T08:23:51.543Z,1.83
2023-04-13T08:26:20.639Z,1.97
2023-04-13T08:28:49.695Z,1.57
2023-04-13T08:31:18.041Z,1.37
2023-04-13T08:33:48.367Z,1.70
2023-04-13T08:36:17.623Z,1.67
2023-04-13T08:38:47.038Z,2.20
2023-04-13T08:41:16.637Z,2.07
2023-04-13T08:43:47.854Z,2.63
2023-04-13T08:46:21.489Z,2.10
2023-04-13T08:48:56.015Z,2.80
2023-04-13T08:51:24.421Z,2.70
2023-04-13T08:53:54.883Z,1.67
2023-04-13T08:56:37.766Z,2.43
2023-04-13T08:59:15.762Z,2.10
2023-04-13T09:01:48.910Z,2.03
2023-04-13T09:04:22.997Z,1.90
2023-04-13T09:06:52.697Z,1.80
2023-04-13T09:09:22.362Z,1.20
2023-04-13T09:11:51.956Z,1.20
2023-04-13T09:14:22.211Z,1.30
2023-04-13T09:16:50.862Z,1.60
2023-04-13T09:19:30.349Z,1.70
2023-04-13T09:21:58.619Z,1.70
2023-04-13T09:24:27.512Z,3.37
2023-04-13T09:26:58.595Z,9.43
2023-04-13T09:29:27.288Z,4.10
2023-04-13T09:31:55.499Z,0.93
2023-04-13T09:34:31.616Z,1.40
2023-04-13T09:37:01.819Z,1.43
2023-04-13T09:39:30.161Z,1.20
2023-04-13T09:41:58.830Z,1.07
2023-04-13T09:44:28.815Z,1.13
2023-04-13T09:47:01.292Z,2.00
2023-04-13T09:49:40.265Z,2.63
2023-04-13T09:52:20.477Z,2.93
2023-04-13T09:54:51.390Z,1.20
2023-04-13T09:57:26.412Z,1.20
2023-04-13T09:59:55.685Z,1.00
2023-04-13T10:02:24.572Z,1.10
2023-04-13T10:04:55.031Z,0.80
2023-04-13T10:07:26.981Z,0.93
2023-04-13T10:09:55.457Z,0.90
2023-04-13T10:12:26.408Z,0.80
2023-04-13T10:15:05.946Z,3.27
2023-04-13T10:17:45.730Z,1.00
2023-04-13T10:20:16.312Z,1.10
2023-04-13T10:22:47.339Z,0.90
2023-04-13T10:25:29.642Z,0.80
2023-04-13T10:28:01.285Z,1.17
2023-04-13T10:30:29.858Z,0.97
2023-04-13T10:33:08.861Z,1.17
2023-04-13T10:35:40.776Z,0.97
2023-04-13T10:38:11.775Z,0.80
2023-04-13T10:40:46.535Z,0.80
2023-04-13T10:43:25.529Z,1.30
2023-04-13T10:46:06.469Z,1.00
2023-04-13T10:48:34.747Z,0.80
2023-04-13T10:51:05.171Z,0.90
2023-04-13T10:53:36.179Z,0.70
2023-04-13T10:56:05.367Z,0.70
2023-04-13T10:58:34.710Z,0.60
2023-04-13T11:01:03.534Z,0.63
2023-04-13T11:03:32.335Z,0.70
2023-04-13T11:06:02.637Z,0.80
2023-04-13T11:08:33.038Z,1.00
2023-04-13T11:11:01.643Z,0.73
2023-04-13T11:13:31.364Z,0.90
2023-04-13T11:16:04.209Z,0.70
2023-04-13T11:18:32.706Z,1.07
2023-04-13T11:21:05.273Z,1.03
2023-04-13T11:23:37.833Z,0.77
2023-04-13T11:26:06.484Z,0.87
2023-04-13T11:28:40.140Z,0.73
2023-04-13T11:31:09.055Z,0.50
2023-04-13T11:33:40.104Z,1.10
2023-04-13T11:36:11.966Z,0.83
2023-04-13T11:38:43.148Z,0.90
2023-04-13T11:43:42.884Z,1.03
2023-04-13T11:46:12.983Z,1.03
2023-04-13T11:48:41.627Z,0.93
2023-04-13T11:51:11.335Z,0.90
2023-04-13T11:53:41.643Z,0.80
2023-04-13T11:56:10.775Z,1.00
2023-04-13T11:58:40.163Z,0.90
2023-04-13T12:01:14.350Z,1.00
2023-04-13T12:04:04.131Z,0.93
2023-04-13T12:06:36.556Z,0.80
2023-04-13T12:09:11.147Z,1.10
2023-04-13T12:11:46.667Z,0.70
2023-04-13T12:19:30.395Z,1.20
2023-04-13T12:22:00.440Z,0.77
2023-04-13T12:24:39.377Z,0.70
2023-04-13T12:29:39.796Z,0.80
2023-04-13T12:32:14.225Z,0.67
2023-04-13T12:34:43.253Z,0.67
2023-04-13T12:37:12.421Z,0.70
2023-04-13T12:39:43.228Z,0.80
2023-04-13T12:42:12.381Z,0.60
2023-04-13T12:44:40.453Z,0.50
2023-04-13T12:47:08.958Z,2.90
2023-04-13T12:49:37.051Z,1.00
2023-04-13T12:52:05.361Z,0.60
2023-04-13T12:54:33.574Z,0.90
2023-04-13T12:57:03.398Z,0.60
2023-04-13T12:59:31.556Z,0.40
2023-04-13T13:01:59.704Z,0.70
2023-04-13T13:04:30.388Z,0.53
2023-04-13T13:06:58.805Z,0.57
2023-04-13T13:09:27.286Z,0.77
2023-04-13T13:11:56.331Z,0.50
2023-04-13T13:14:26.029Z,0.50
2023-04-13T13:16:54.121Z,0.40
2023-04-13T13:19:23.864Z,0.50
2023-04-13T13:21:51.941Z,0.63
2023-04-13T13:24:20.349Z,1.00
2023-04-13T13:27:14.346Z,0.43
2023-04-13T13:29:38.113Z,0.50
2023-04-13T13:32:07.224Z,0.50
2023-04-13T13:34:35.434Z,1.30
2023-04-13T13:37:03.523Z,0.50
2023-04-13T13:39:32.366Z,1.00
2023-04-13T13:42:00.442Z,1.20
2023-04-13T13:44:28.808Z,2.60
2023-04-13T13:46:58.783Z,2.23
2023-04-13T13:49:26.889Z,2.97
2023-04-13T13:51:55.043Z,2.23
2023-04-13T13:54:23.089Z,1.63
2023-04-13T13:56:51.532Z,2.23
2023-04-13T13:59:20.071Z,1.87
2023-04-13T14:01:49.556Z,2.97
2023-04-13T14:04:20.985Z,0.60
2023-04-13T14:06:49.858Z,0.60
2023-04-13T14:09:19.778Z,0.60
2023-04-13T14:11:47.958Z,2.10
2023-04-13T14:14:21.672Z,1.37
2023-04-13T14:16:50.781Z,1.20
2023-04-13T14:19:22.244Z,1.00
2023-04-13T14:21:50.768Z,8.90
2023-04-13T14:24:19.266Z,18.90
2023-04-13T14:26:47.499Z,11.33
2023-04-13T14:29:16.449Z,9.93
2023-04-13T14:31:44.708Z,3.10
2023-04-13T14:34:12.884Z,2.63
2023-04-13T14:36:42.735Z,0.87
2023-04-13T14:39:10.981Z,1.20
2023-04-13T14:41:39.123Z,1.40
2023-04-13T14:44:07.993Z,0.90
2023-04-13T14:46:36.393Z,0.77
2023-04-13T14:49:04.731Z,0.93
2023-04-13T14:51:33.074Z,0.90
2023-04-13T14:54:03.550Z,1.40
2023-04-13T14:56:32.086Z,1.30
2023-04-13T14:59:00.766Z,0.90
2023-04-13T15:01:29.244Z,1.00
2023-04-13T15:03:57.592Z,1.00
2023-04-13T15:06:27.672Z,1.40
2023-04-13T15:08:56.525Z,0.90
2023-04-13T15:11:27.324Z,0.90
2023-04-13T15:13:56.767Z,1.10
2023-04-13T15:16:25.065Z,1.20
2023-04-13T15:18:53.209Z,0.80
2023-04-13T15:21:21.304Z,1.00
2023-04-13T15:23:49.634Z,1.60
2023-04-13T15:26:18.925Z,1.70
2023-04-13T15:28:48.575Z,1.10
2023-04-13T15:31:16.786Z,1.67
2023-04-13T15:33:45.133Z,1.43
2023-04-13T15:36:15.948Z,0.80
2023-04-13T15:38:44.186Z,1.43
2023-04-13T15:41:12.698Z,1.10
2023-04-13T15:43:41.962Z,0.80
2023-04-13T15:46:11.872Z,0.90
2023-04-13T15:48:40.153Z,0.70
2023-04-13T15:51:08.432Z,1.00
2023-04-13T15:53:36.629Z,0.70
2023-04-13T15:56:05.047Z,1.07
2023-04-13T15:58:33.441Z,0.90
2023-04-13T16:01:05.297Z,0.90
2023-04-13T16:03:36.407Z,1.20
2023-04-13T16:06:05.039Z,1.00
2023-04-13T16:08:33.309Z,1.10
2023-04-13T16:11:01.998Z,1.00
2023-04-13T16:13:48.850Z,1.30
2023-04-13T16:16:18.555Z,1.50
2023-04-13T16:18:49.514Z,1.20
2023-04-13T16:21:19.680Z,1.00
2023-04-13T16:23:49.301Z,1.13
2023-04-13T16:26:17.426Z,0.90
2023-04-13T16:28:45.593Z,1.23
2023-04-13T16:31:14.096Z,2.00
2023-04-13T16:33:42.700Z,0.80
2023-04-13T16:36:13.536Z,2.17
2023-04-13T16:38:42.989Z,0.77
2023-04-13T16:41:11.931Z,0.60
2023-04-13T16:43:40.056Z,1.10
2023-04-13T16:46:08.128Z,0.90
2023-04-13T16:48:36.562Z,1.40
2023-04-13T16:51:05.122Z,2.13
2023-04-13T16:53:35.098Z,1.27
2023-04-13T16:56:04.444Z,1.20
2023-04-13T16:58:32.960Z,1.00
2023-04-13T17:01:01.418Z,7.53
2023-04-13T17:03:29.688Z,7.30
2023-04-13T17:05:57.960Z,2.37
2023-04-13T17:08:26.237Z,1.40
2023-04-13T17:10:55.844Z,1.13
2023-04-13T17:13:23.895Z,1.07
2023-04-13T17:15:52.099Z,0.87
2023-04-13T17:18:20.556Z,1.27
2023-04-13T17:20:54.998Z,1.20
2023-04-13T17:23:23.989Z,3.10
2023-04-13T17:25:53.754Z,5.40
2023-04-13T17:28:25.232Z,5.17
2023-04-13T17:30:54.137Z,1.97
2023-04-13T17:33:24.545Z,2.47
2023-04-13T17:35:54.398Z,3.43
2023-04-13T17:38:22.831Z,1.40
2023-04-13T17:40:52.402Z,0.93
2023-04-13T17:43:20.618Z,1.20
2023-04-13T17:45:50.117Z,1.07
2023-04-13T17:48:18.459Z,0.87
2023-04-13T17:50:46.941Z,0.87
2023-04-13T17:53:15.716Z,1.30
2023-04-13T17:55:44.352Z,1.00
2023-04-13T17:58:12.948Z,1.20
2023-04-13T18:00:41.104Z,0.90
2023-04-13T18:03:11.998Z,1.10
2023-04-13T18:05:44.582Z,1.20
2023-04-13T18:08:12.818Z,0.93
2023-04-13T18:10:40.950Z,1.53
2023-04-13T18:13:08.962Z,1.30
2023-04-13T18:15:37.004Z,1.20
2023-04-13T18:18:05.858Z,0.80
2023-04-13T18:20:35.356Z,1.03
2023-04-13T18:23:03.664Z,1.20
2023-04-13T18:25:31.788Z,0.70
2023-04-13T18:27:59.800Z,0.70
2023-04-13T18:30:27.917Z,1.37
2023-04-13T18:32:56.232Z,1.17
2023-04-13T18:35:24.611Z,1.10
2023-04-13T18:37:54.245Z,1.20
2023-04-13T18:40:22.364Z,1.03
2023-04-13T18:42:50.709Z,1.03
2023-04-13T18:45:19.509Z,1.00
2023-04-13T18:47:47.805Z,1.10
2023-04-13T18:50:15.831Z,1.30
2023-04-13T18:52:43.938Z,2.40
2023-04-13T18:55:13.893Z,1.83
2023-04-13T18:57:42.341Z,1.57
2023-04-13T19:00:11.779Z,1.23
2023-04-13T19:02:40.798Z,1.77
2023-04-13T19:05:12.795Z,1.93
2023-04-13T19:07:42.558Z,2.00
2023-04-13T19:10:13.848Z,3.40
2023-04-13T19:12:41.988Z,4.57
2023-04-13T19:15:10.562Z,2.27
2023-04-13T19:17:38.719Z,2.10
2023-04-13T19:20:10.278Z,2.57
2023-04-13T19:22:38.506Z,3.60
2023-04-13T19:25:14.273Z,3.80
2023-04-13T19:27:44.818Z,3.70
2023-04-13T19:30:13.699Z,3.70
2023-04-13T19:32:43.405Z,4.50
2023-04-13T19:35:12.971Z,6.63
2023-04-13T19:37:41.808Z,10.93
2023-04-13T19:40:13.932Z,1.90
2023-04-13T19:42:45.126Z,2.27
2023-04-13T19:45:14.985Z,4.13
2023-04-13T19:47:43.693Z,4.80
2023-04-13T19:50:14.145Z,4.30
2023-04-13T19:52:43.422Z,4.83
2023-04-13T19:55:12.161Z,4.20
2023-04-13T19:57:42.997Z,3.50
2023-04-13T20:00:22.531Z,3.07
2023-04-13T20:02:52.841Z,3.00
2023-04-13T20:05:22.085Z,2.90
2023-04-13T20:07:50.402Z,2.43
2023-04-13T20:10:18.606Z,2.87
2023-04-13T20:12:46.940Z,2.20
2023-04-13T20:15:16.486Z,2.03
2023-04-13T20:17:44.646Z,1.90
2023-04-13T20:20:13.727Z,1.60
2023-04-13T20:22:42.207Z,2.07
2023-04-13T20:25:11.196Z,1.30
2023-04-13T20:27:42.137Z,1.40
2023-04-13T20:30:11.871Z,1.30
2023-04-13T20:32:41.759Z,1.00
2023-04-13T20:35:11.065Z,1.23
2023-04-13T20:37:39.300Z,1.43
2023-04-13T20:40:11.547Z,1.30
2023-04-13T20:42:42.032Z,1.23
2023-04-13T20:45:12.803Z,1.40
2023-04-13T20:47:43.425Z,1.40
2023-04-13T20:50:13.335Z,1.30
2023-04-13T20:52:43.402Z,1.50
2023-04-13T20:55:12.135Z,1.43
2023-04-13T20:57:42.384Z,1.70
2023-04-13T21:00:15.375Z,1.40
2023-04-13T21:02:47.221Z,1.77
2023-04-13T21:05:15.487Z,1.90
2023-04-13T21:07:43.730Z,1.57
2023-04-13T21:10:12.686Z,1.40
2023-04-13T21:12:40.730Z,2.00
2023-04-13T21:15:10.568Z,2.10
2023-04-13T21:17:38.976Z,2.43
2023-04-13T21:20:10.673Z,3.20
2023-04-13T21:22:38.810Z,2.80
2023-04-13T21:25:08.012Z,3.13
2023-04-13T21:27:36.249Z,3.20
2023-04-13T21:30:04.541Z,3.33
2023-04-13T21:32:32.735Z,3.13
2023-04-13T21:35:01.152Z,2.73
2023-04-13T21:37:31.342Z,2.37
2023-04-13T21:40:00.997Z,2.07
2023-04-13T21:42:29.697Z,2.07
2023-04-13T21:44:58.277Z,2.40
2023-04-13T21:47:26.824Z,2.20
2023-04-13T21:49:55.428Z,2.23
2023-04-13T21:52:23.537Z,2.23
2023-04-13T21:54:53.333Z,1.97
2023-04-13T21:57:21.743Z,1.93
2023-04-13T21:59:49.845Z,2.20
2023-04-13T22:02:17.952Z,2.57
2023-04-13T22:04:46.081Z,2.40
2023-04-13T22:07:14.680Z,2.20
2023-04-13T22:09:42.746Z,2.47
2023-04-13T22:12:14.327Z,2.50
2023-04-13T22:14:43.970Z,2.63
2023-04-13T22:17:14.444Z,2.90
2023-04-13T22:19:42.821Z,3.13
2023-04-13T22:22:10.886Z,3.10
2023-04-13T22:24:39.177Z,2.87
2023-04-13T22:27:07.348Z,2.73
2023-04-13T22:29:40.222Z,2.80
2023-04-13T22:32:08.213Z,2.30
2023-04-13T22:34:36.563Z,2.57
2023-04-13T22:37:05.161Z,2.70
2023-04-13T22:39:33.361Z,2.70
2023-04-13T22:42:01.717Z,2.80
2023-04-13T22:44:34.392Z,2.60
2023-04-13T22:47:04.924Z,2.70
2023-04-13T22:49:32.952Z,2.33
2023-04-13T22:52:01.894Z,2.10
2023-04-13T22:54:31.520Z,1.90
2023-04-13T22:57:02.828Z,2.57
2023-04-13T22:59:32.951Z,2.47
2023-04-13T23:02:01.374Z,2.10
2023-04-13T23:04:31.483Z,2.03
2023-04-13T23:06:59.940Z,2.03
2023-04-13T23:09:28.134Z,1.83
2023-04-13T23:11:56.417Z,1.90
2023-04-13T23:14:25.127Z,2.00
2023-04-13T23:16:53.126Z,1.83
2023-04-13T23:19:21.327Z,3.10
2023-04-13T23:21:50.866Z,2.70
2023-04-13T23:24:18.993Z,3.03
2023-04-13T23:26:47.181Z,2.87
2023-04-13T23:29:17.266Z,2.37
2023-04-13T23:31:45.660Z,2.50
2023-04-13T23:34:13.828Z,1.90
2023-04-13T23:36:42.083Z,2.43
2023-04-13T23:39:11.610Z,2.97
2023-04-13T23:41:39.850Z,2.30
2023-04-13T23:44:07.959Z,2.00
2023-04-13T23:46:36.423Z,1.70
2023-04-13T23:49:04.569Z,2.10
2023-04-13T23:51:32.800Z,2.20
2023-04-13T23:54:00.802Z,2.23
2023-04-13T23:56:30.640Z,2.50
2023-04-13T23:58:59.280Z,2.70
